• Join FlightAware (Why Join?)
  • Login
  • US Flag 
03:28AM EDT


 

Airport Tracker/Info


-or-


 

Live Flight TrackerFlight Track Log ✈ ASQ4565 ✈ 18-Apr-2012 ✈ KIAH - KLRD

Flight Track Log - Related Links

Times and Time Zones

All times are in EDT time to prevent confusion due to time zone crossing. See the ASQ4565 flight status page for this flight to view local times or setup timezone preferences in your user account.

Time Position Orientation Groundspeed Altitude Reporting Facility
EDT Latitude Longitude Course Direction KTS MPH feet Rate Location/Type
10:48PM 29.9622 -95.3433 127° Southeast 160 184 900  Level Houston Center
10:49PM 29.9322 -95.2967 127° Southeast 227 261 2,900 1,860 Climbing Houston Center
10:50PM 29.8861 -95.2258 123° Southeast 257 296 4,800 2,040 Climbing Houston Center
10:51PM 29.8603 -95.1794 159° South 262 302 6,600 2,760 Climbing Houston Center
10:52PM 29.7900 -95.1483 163° South 277 319 9,400 2,280 Climbing Houston Center
10:53PM 29.7094 -95.1192 168° South 312 359 11,200 1,560 Climbing Houston Center
10:54PM 29.6286 -95.0997 220° Southwest 360 414 12,500 1,680 Climbing Houston Center
10:55PM 29.5556 -95.1714 233° Southwest 344 396 14,600 1,980 Climbing Houston Center
10:56PM 29.4992 -95.2578 233° Southwest 331 381 16,500 1,860 Climbing Houston Center
10:57PM 29.4403 -95.3464 241° Southwest 339 390 18,400 2,160 Climbing Houston Center
10:58PM 29.3939 -95.4425 241° Southwest 345 397 20,900 2,520 Climbing Houston Center
10:59PM 29.3517 -95.5314 244° Southwest 345 397 23,500 2,400 Climbing Houston Center
11:00PM 29.3114 -95.6253 241° Southwest 334 384 25,800 1,200 Climbing Houston Center
11:01PM 29.2647 -95.7211 242° Southwest 334 384 26,000 60 Climbing Houston Center
11:02PM 29.2136 -95.8308 243° Southwest 363 418 26,000  Level Houston Center
11:03PM 29.1597 -95.9500 242° Southwest 397 457 26,000  Level Houston Center
11:04PM 29.1036 -96.0689 242° Southwest 418 481 26,000  Level Houston Center
11:05PM 29.0431 -96.1994 241° Southwest 438 504 26,000  Level Houston Center
11:06PM 28.9825 -96.3250 243° Southwest 444 511 26,000  Level Houston Center
11:07PM 28.9281 -96.4483 241° Southwest 444 511 26,000  Level Houston Center
11:08PM 28.8717 -96.5644 242° Southwest 439 505 26,000  Level Houston Center
11:09PM 28.8153 -96.6850 242° Southwest 439 505 26,000  Level Houston Center
11:10PM 28.7608 -96.8008 242° Southwest 434 499 26,000  Level Houston Center
11:11PM 28.7042 -96.9214 241° Southwest 434 499 26,000  Level Houston Center
11:12PM 28.6475 -97.0367 242° Southwest 429 494 26,000  Level Houston Center
11:13PM 28.5925 -97.1547 242° Southwest 429 494 26,000  Level Houston Center
11:14PM 28.5378 -97.2722 241° Southwest 429 494 26,000  Level Houston Center
11:15PM 28.4806 -97.3897 241° Southwest 429 494 26,000  Level Houston Center
11:16PM 28.4236 -97.5072 242° Southwest 429 494 26,000  Level Houston Center
11:17PM 28.3683 -97.6269 239° Southwest 424 488 26,000  Level Houston Center
11:18PM 28.3089 -97.7414 242° Southwest 424 488 26,000  Level Houston Center
11:19PM 28.2536 -97.8608 242° Southwest 424 488 26,000  Level Houston Center
11:20PM 28.1981 -97.9800 236° Southwest 429 494 26,000  Level Houston Center
11:21PM 28.1392 -98.0778 241° Southwest 424 488 26,000 -1,200 Level Houston Center
11:22PM 28.0839 -98.1900 243° Southwest 418 481 23,700 -2,520 Descending Houston Center
11:23PM 28.0325 -98.3019 241° Southwest 407 468 21,000 -2,760 Descending Houston Center
11:24PM 27.9794 -98.4092 241° Southwest 401 461 18,200 -2,700 Descending Houston Center
11:25PM 27.9283 -98.5142 241° Southwest 401 461 15,600 -2,640 Descending Houston Center
11:26PM 27.8772 -98.6164 241° Southwest 396 456 13,000 -2,100 Descending Houston Center
11:27PM 27.8306 -98.7119 242° Southwest 369 425 11,400 -1,680 Descending Houston Center
11:28PM 27.7908 -98.7964 241° Southwest 334 384 9,700 -1,800 Descending Houston Center
11:29PM 27.7511 -98.8758 240° Southwest 313 360 7,800 -1,620 Descending Houston Center
11:30PM 27.7139 -98.9483 241° Southwest 294 338 6,500 -1,920 Descending Houston Center
11:31PM 27.6764 -99.0256 241° Southwest 268 308 4,000 -1,260 Descending Houston Center
11:32PM 27.6461 -99.0867 240° Southwest 249 287 4,000  Level Houston Center
11:33PM 27.6181 -99.1408 243° Southwest 225 259 4,000  Level Houston Center
11:34PM 27.5919 -99.1978 264° West 213 245 4,000  Level Houston Center
11:35PM 27.5867 -99.2558 291° West 193 222 4,000 -120 Level Houston Center
11:36PM 27.6100 -99.3231 297° West 203 234 3,800 -780 Descending Houston Center
11:37PM 27.6361 -99.3811 294° West 203 234 2,500 -720 Descending Houston Center
11:38PM 27.6597 -99.4414 200° South 217 250 2,400 -300 Descending Houston Center
11:39PM 27.6256 -99.4553 183° South 123 142 2,000 -600 Descending Houston Center
11:40PM 27.5922 -99.4575 183° South 101 116 1,200 -840 Descending Houston Center